sensor_id;sensor_type;location;lat;lon;timestamp;P1;durP1;ratioP1;P2;durP2;ratioP2
36923;SDS011;22841;50.252;18.688;2023-07-28T00:00:14;3.55;;;2.47;;
36923;SDS011;22841;50.252;18.688;2023-07-28T00:02:40;4.13;;;2.25;;
36923;SDS011;22841;50.252;18.688;2023-07-28T00:05:06;2.75;;;2.45;;
36923;SDS011;22841;50.252;18.688;2023-07-28T00:07:32;3.08;;;2.10;;
36923;SDS011;22841;50.252;18.688;2023-07-28T00:10:01;4.03;;;2.35;;
36923;SDS011;22841;50.252;18.688;2023-07-28T00:12:27;9.65;;;2.50;;
36923;SDS011;22841;50.252;18.688;2023-07-28T00:14:53;9.57;;;2.90;;
36923;SDS011;22841;50.252;18.688;2023-07-28T00:17:19;5.93;;;2.75;;
36923;SDS011;22841;50.252;18.688;2023-07-28T00:19:45;4.68;;;2.70;;
36923;SDS011;22841;50.252;18.688;2023-07-28T00:22:11;7.78;;;2.67;;
36923;SDS011;22841;50.252;18.688;2023-07-28T00:24:38;6.88;;;2.78;;
36923;SDS011;22841;50.252;18.688;2023-07-28T00:27:04;4.13;;;2.33;;
36923;SDS011;22841;50.252;18.688;2023-07-28T00:29:30;4.15;;;2.45;;
36923;SDS011;22841;50.252;18.688;2023-07-28T00:31:56;11.70;;;2.58;;
36923;SDS011;22841;50.252;18.688;2023-07-28T00:34:22;8.48;;;2.45;;
36923;SDS011;22841;50.252;18.688;2023-07-28T00:36:49;5.47;;;2.85;;
36923;SDS011;22841;50.252;18.688;2023-07-28T00:45:23;3.05;;;2.38;;
36923;SDS011;22841;50.252;18.688;2023-07-28T00:47:49;3.67;;;2.33;;
36923;SDS011;22841;50.252;18.688;2023-07-28T00:50:16;3.60;;;2.30;;
36923;SDS011;22841;50.252;18.688;2023-07-28T00:52:42;2.50;;;2.22;;
36923;SDS011;22841;50.252;18.688;2023-07-28T00:55:08;2.95;;;2.38;;
36923;SDS011;22841;50.252;18.688;2023-07-28T00:57:34;4.88;;;2.30;;
36923;SDS011;22841;50.252;18.688;2023-07-28T01:00:01;2.42;;;2.03;;
36923;SDS011;22841;50.252;18.688;2023-07-28T01:02:27;5.18;;;2.10;;
36923;SDS011;22841;50.252;18.688;2023-07-28T01:04:53;6.80;;;2.10;;
36923;SDS011;22841;50.252;18.688;2023-07-28T01:07:23;3.15;;;2.38;;
36923;SDS011;22841;50.252;18.688;2023-07-28T01:10:05;5.43;;;2.53;;
36923;SDS011;22841;50.252;18.688;2023-07-28T01:12:35;6.85;;;2.28;;
36923;SDS011;22841;50.252;18.688;2023-07-28T01:15:02;8.95;;;2.50;;
36923;SDS011;22841;50.252;18.688;2023-07-28T01:17:28;5.90;;;2.45;;
36923;SDS011;22841;50.252;18.688;2023-07-28T01:19:54;3.15;;;2.20;;
36923;SDS011;22841;50.252;18.688;2023-07-28T01:25:21;4.15;;;3.08;;
36923;SDS011;22841;50.252;18.688;2023-07-28T01:27:51;4.72;;;3.00;;
36923;SDS011;22841;50.252;18.688;2023-07-28T01:30:19;4.13;;;2.78;;
36923;SDS011;22841;50.252;18.688;2023-07-28T01:32:47;4.72;;;2.20;;
36923;SDS011;22841;50.252;18.688;2023-07-28T01:35:13;4.30;;;2.40;;
36923;SDS011;22841;50.252;18.688;2023-07-28T01:37:39;3.78;;;2.35;;
36923;SDS011;22841;50.252;18.688;2023-07-28T01:47:29;4.30;;;2.53;;
36923;SDS011;22841;50.252;18.688;2023-07-28T01:49:55;2.97;;;2.20;;
36923;SDS011;22841;50.252;18.688;2023-07-28T01:52:21;2.95;;;2.05;;
36923;SDS011;22841;50.252;18.688;2023-07-28T01:54:48;3.80;;;2.38;;
36923;SDS011;22841;50.252;18.688;2023-07-28T01:57:14;5.28;;;2.55;;
36923;SDS011;22841;50.252;18.688;2023-07-28T01:59:40;15.00;;;2.50;;
36923;SDS011;22841;50.252;18.688;2023-07-28T02:02:06;6.03;;;2.40;;
36923;SDS011;22841;50.252;18.688;2023-07-28T02:04:32;3.50;;;2.35;;
36923;SDS011;22841;50.252;18.688;2023-07-28T02:06:58;3.38;;;2.47;;
36923;SDS011;22841;50.252;18.688;2023-07-28T02:09:24;5.88;;;2.40;;
36923;SDS011;22841;50.252;18.688;2023-07-28T02:11:51;4.88;;;2.13;;
36923;SDS011;22841;50.252;18.688;2023-07-28T02:14:17;4.50;;;2.80;;
36923;SDS011;22841;50.252;18.688;2023-07-28T02:16:43;6.95;;;2.50;;
36923;SDS011;22841;50.252;18.688;2023-07-28T02:19:09;3.38;;;2.20;;
36923;SDS011;22841;50.252;18.688;2023-07-28T02:21:35;7.75;;;2.20;;
36923;SDS011;22841;50.252;18.688;2023-07-28T02:24:01;4.13;;;2.35;;
36923;SDS011;22841;50.252;18.688;2023-07-28T02:26:27;3.55;;;2.45;;
36923;SDS011;22841;50.252;18.688;2023-07-28T02:28:53;3.35;;;2.70;;
36923;SDS011;22841;50.252;18.688;2023-07-28T02:31:20;4.25;;;2.67;;
36923;SDS011;22841;50.252;18.688;2023-07-28T02:33:46;3.03;;;2.47;;
36923;SDS011;22841;50.252;18.688;2023-07-28T02:36:12;8.40;;;3.03;;
36923;SDS011;22841;50.252;18.688;2023-07-28T02:38:38;6.22;;;2.72;;
36923;SDS011;22841;50.252;18.688;2023-07-28T02:41:04;7.22;;;2.63;;
36923;SDS011;22841;50.252;18.688;2023-07-28T02:46:23;4.40;;;2.75;;
36923;SDS011;22841;50.252;18.688;2023-07-28T02:48:51;4.22;;;3.28;;
36923;SDS011;22841;50.252;18.688;2023-07-28T02:51:17;4.63;;;2.58;;
36923;SDS011;22841;50.252;18.688;2023-07-28T02:53:43;4.28;;;2.60;;
36923;SDS011;22841;50.252;18.688;2023-07-28T02:56:09;6.20;;;2.50;;
36923;SDS011;22841;50.252;18.688;2023-07-28T02:58:35;9.00;;;2.47;;
36923;SDS011;22841;50.252;18.688;2023-07-28T03:01:01;3.58;;;2.33;;
36923;SDS011;22841;50.252;18.688;2023-07-28T03:03:28;2.72;;;2.30;;
36923;SDS011;22841;50.252;18.688;2023-07-28T03:05:54;5.78;;;3.28;;
36923;SDS011;22841;50.252;18.688;2023-07-28T03:08:20;5.15;;;2.75;;
36923;SDS011;22841;50.252;18.688;2023-07-28T03:10:46;4.93;;;3.08;;
36923;SDS011;22841;50.252;18.688;2023-07-28T03:13:12;5.30;;;2.60;;
36923;SDS011;22841;50.252;18.688;2023-07-28T03:15:38;4.30;;;2.42;;
36923;SDS011;22841;50.252;18.688;2023-07-28T03:18:04;6.90;;;2.95;;
36923;SDS011;22841;50.252;18.688;2023-07-28T03:20:31;4.22;;;2.72;;
36923;SDS011;22841;50.252;18.688;2023-07-28T03:22:57;6.57;;;3.10;;
36923;SDS011;22841;50.252;18.688;2023-07-28T03:25:23;3.45;;;2.35;;
36923;SDS011;22841;50.252;18.688;2023-07-28T03:27:49;7.40;;;2.88;;
36923;SDS011;22841;50.252;18.688;2023-07-28T03:30:15;6.40;;;3.00;;
36923;SDS011;22841;50.252;18.688;2023-07-28T03:32:41;4.63;;;2.67;;
36923;SDS011;22841;50.252;18.688;2023-07-28T03:35:07;3.45;;;2.08;;
36923;SDS011;22841;50.252;18.688;2023-07-28T03:37:34;3.90;;;2.50;;
36923;SDS011;22841;50.252;18.688;2023-07-28T03:40:00;3.28;;;2.22;;
36923;SDS011;22841;50.252;18.688;2023-07-28T03:42:26;5.90;;;2.70;;
36923;SDS011;22841;50.252;18.688;2023-07-28T03:44:52;2.70;;;2.40;;
36923;SDS011;22841;50.252;18.688;2023-07-28T03:47:19;3.58;;;2.17;;
36923;SDS011;22841;50.252;18.688;2023-07-28T03:49:45;3.42;;;2.53;;
36923;SDS011;22841;50.252;18.688;2023-07-28T03:52:11;4.43;;;2.35;;
36923;SDS011;22841;50.252;18.688;2023-07-28T03:54:37;5.18;;;2.28;;
36923;SDS011;22841;50.252;18.688;2023-07-28T03:57:03;3.35;;;2.30;;
36923;SDS011;22841;50.252;18.688;2023-07-28T03:59:29;6.78;;;2.88;;
36923;SDS011;22841;50.252;18.688;2023-07-28T04:01:55;3.53;;;2.15;;
36923;SDS011;22841;50.252;18.688;2023-07-28T04:04:22;4.07;;;2.75;;
36923;SDS011;22841;50.252;18.688;2023-07-28T04:06:49;5.78;;;2.78;;
36923;SDS011;22841;50.252;18.688;2023-07-28T04:09:16;7.75;;;2.28;;
36923;SDS011;22841;50.252;18.688;2023-07-28T04:11:42;7.07;;;2.40;;
36923;SDS011;22841;50.252;18.688;2023-07-28T04:14:09;6.88;;;3.00;;
36923;SDS011;22841;50.252;18.688;2023-07-28T04:16:35;8.35;;;2.45;;
36923;SDS011;22841;50.252;18.688;2023-07-28T04:19:01;5.63;;;2.90;;
36923;SDS011;22841;50.252;18.688;2023-07-28T04:21:27;3.15;;;2.33;;
36923;SDS011;22841;50.252;18.688;2023-07-28T04:23:53;4.13;;;2.80;;
36923;SDS011;22841;50.252;18.688;2023-07-28T04:26:19;5.45;;;2.60;;
36923;SDS011;22841;50.252;18.688;2023-07-28T04:28:45;5.40;;;2.80;;
36923;SDS011;22841;50.252;18.688;2023-07-28T04:31:12;3.83;;;2.63;;
36923;SDS011;22841;50.252;18.688;2023-07-28T04:33:40;4.95;;;3.00;;
36923;SDS011;22841;50.252;18.688;2023-07-28T04:36:07;6.03;;;2.70;;
36923;SDS011;22841;50.252;18.688;2023-07-28T04:38:33;5.72;;;3.42;;
36923;SDS011;22841;50.252;18.688;2023-07-28T04:40:59;4.40;;;2.78;;
36923;SDS011;22841;50.252;18.688;2023-07-28T04:43:25;5.53;;;2.83;;
36923;SDS011;22841;50.252;18.688;2023-07-28T04:45:56;4.22;;;2.70;;
36923;SDS011;22841;50.252;18.688;2023-07-28T04:48:22;3.50;;;2.38;;
36923;SDS011;22841;50.252;18.688;2023-07-28T04:50:48;6.15;;;3.08;;
36923;SDS011;22841;50.252;18.688;2023-07-28T04:53:14;5.70;;;2.53;;
36923;SDS011;22841;50.252;18.688;2023-07-28T04:55:40;6.80;;;2.60;;
36923;SDS011;22841;50.252;18.688;2023-07-28T04:58:06;3.28;;;2.50;;
36923;SDS011;22841;50.252;18.688;2023-07-28T05:10:23;2.78;;;2.50;;
36923;SDS011;22841;50.252;18.688;2023-07-28T05:12:49;6.65;;;3.05;;
36923;SDS011;22841;50.252;18.688;2023-07-28T05:15:15;3.78;;;2.42;;
36923;SDS011;22841;50.252;18.688;2023-07-28T05:17:41;4.53;;;2.53;;
36923;SDS011;22841;50.252;18.688;2023-07-28T05:20:07;5.72;;;3.28;;
36923;SDS011;22841;50.252;18.688;2023-07-28T05:22:34;4.68;;;3.00;;
36923;SDS011;22841;50.252;18.688;2023-07-28T05:25:00;3.67;;;2.72;;
36923;SDS011;22841;50.252;18.688;2023-07-28T05:27:26;4.47;;;3.17;;
36923;SDS011;22841;50.252;18.688;2023-07-28T05:29:52;5.97;;;3.83;;
36923;SDS011;22841;50.252;18.688;2023-07-28T05:32:19;7.38;;;3.15;;
36923;SDS011;22841;50.252;18.688;2023-07-28T05:34:45;6.18;;;3.55;;
36923;SDS011;22841;50.252;18.688;2023-07-28T05:37:11;5.45;;;3.65;;
36923;SDS011;22841;50.252;18.688;2023-07-28T05:39:37;7.82;;;4.43;;
36923;SDS011;22841;50.252;18.688;2023-07-28T05:42:03;10.65;;;4.63;;
36923;SDS011;22841;50.252;18.688;2023-07-28T05:44:29;8.48;;;4.35;;
36923;SDS011;22841;50.252;18.688;2023-07-28T05:46:55;6.47;;;3.78;;
36923;SDS011;22841;50.252;18.688;2023-07-28T05:49:47;10.02;;;4.55;;
36923;SDS011;22841;50.252;18.688;2023-07-28T05:52:13;5.95;;;4.68;;
36923;SDS011;22841;50.252;18.688;2023-07-28T05:54:39;9.40;;;4.55;;
36923;SDS011;22841;50.252;18.688;2023-07-28T05:57:05;8.40;;;4.97;;
36923;SDS011;22841;50.252;18.688;2023-07-28T05:59:31;6.78;;;4.72;;
36923;SDS011;22841;50.252;18.688;2023-07-28T06:01:57;7.68;;;4.95;;
36923;SDS011;22841;50.252;18.688;2023-07-28T06:04:24;12.77;;;5.15;;
36923;SDS011;22841;50.252;18.688;2023-07-28T06:06:50;7.50;;;5.07;;
36923;SDS011;22841;50.252;18.688;2023-07-28T06:09:16;10.05;;;5.05;;
36923;SDS011;22841;50.252;18.688;2023-07-28T06:11:42;10.82;;;6.07;;
36923;SDS011;22841;50.252;18.688;2023-07-28T06:14:08;11.18;;;5.05;;
36923;SDS011;22841;50.252;18.688;2023-07-28T06:16:34;9.65;;;4.82;;
36923;SDS011;22841;50.252;18.688;2023-07-28T06:19:00;10.77;;;5.82;;
36923;SDS011;22841;50.252;18.688;2023-07-28T06:21:26;12.10;;;5.57;;
36923;SDS011;22841;50.252;18.688;2023-07-28T06:23:52;10.45;;;5.10;;
36923;SDS011;22841;50.252;18.688;2023-07-28T06:26:18;7.53;;;5.25;;
36923;SDS011;22841;50.252;18.688;2023-07-28T06:28:45;7.03;;;5.55;;
36923;SDS011;22841;50.252;18.688;2023-07-28T06:31:11;8.80;;;5.63;;
36923;SDS011;22841;50.252;18.688;2023-07-28T06:33:37;10.27;;;5.10;;
36923;SDS011;22841;50.252;18.688;2023-07-28T06:36:03;8.15;;;4.72;;
36923;SDS011;22841;50.252;18.688;2023-07-28T06:38:30;5.95;;;4.32;;
36923;SDS011;22841;50.252;18.688;2023-07-28T06:41:22;5.28;;;4.45;;
36923;SDS011;22841;50.252;18.688;2023-07-28T06:44:13;9.65;;;5.13;;
36923;SDS011;22841;50.252;18.688;2023-07-28T06:46:41;8.55;;;3.90;;
36923;SDS011;22841;50.252;18.688;2023-07-28T06:49:07;6.53;;;4.55;;
36923;SDS011;22841;50.252;18.688;2023-07-28T06:51:33;7.65;;;4.50;;
36923;SDS011;22841;50.252;18.688;2023-07-28T06:54:00;9.20;;;4.45;;
36923;SDS011;22841;50.252;18.688;2023-07-28T06:56:26;5.30;;;3.67;;
36923;SDS011;22841;50.252;18.688;2023-07-28T06:58:52;6.03;;;4.45;;
36923;SDS011;22841;50.252;18.688;2023-07-28T07:01:18;7.40;;;4.70;;
36923;SDS011;22841;50.252;18.688;2023-07-28T07:03:45;6.13;;;5.05;;
36923;SDS011;22841;50.252;18.688;2023-07-28T07:06:11;9.43;;;4.90;;
36923;SDS011;22841;50.252;18.688;2023-07-28T07:08:37;5.72;;;4.05;;
36923;SDS011;22841;50.252;18.688;2023-07-28T07:11:04;7.45;;;4.57;;
36923;SDS011;22841;50.252;18.688;2023-07-28T07:13:31;5.53;;;4.45;;
36923;SDS011;22841;50.252;18.688;2023-07-28T07:15:57;6.95;;;4.93;;
36923;SDS011;22841;50.252;18.688;2023-07-28T07:18:23;7.53;;;4.35;;
36923;SDS011;22841;50.252;18.688;2023-07-28T07:24:06;5.50;;;4.18;;
36923;SDS011;22841;50.252;18.688;2023-07-28T07:26:32;7.15;;;4.30;;
36923;SDS011;22841;50.252;18.688;2023-07-28T07:28:58;7.00;;;4.38;;
36923;SDS011;22841;50.252;18.688;2023-07-28T07:31:24;6.40;;;4.05;;
36923;SDS011;22841;50.252;18.688;2023-07-28T07:33:51;7.63;;;4.43;;
36923;SDS011;22841;50.252;18.688;2023-07-28T07:36:17;3.90;;;3.42;;
36923;SDS011;22841;50.252;18.688;2023-07-28T07:38:44;6.68;;;3.80;;
36923;SDS011;22841;50.252;18.688;2023-07-28T07:41:14;6.10;;;4.15;;
36923;SDS011;22841;50.252;18.688;2023-07-28T07:43:47;5.43;;;3.88;;
36923;SDS011;22841;50.252;18.688;2023-07-28T07:46:14;5.60;;;4.43;;
36923;SDS011;22841;50.252;18.688;2023-07-28T07:48:41;5.68;;;4.10;;
36923;SDS011;22841;50.252;18.688;2023-07-28T07:58:34;4.25;;;3.55;;
36923;SDS011;22841;50.252;18.688;2023-07-28T08:01:00;6.45;;;4.25;;
36923;SDS011;22841;50.252;18.688;2023-07-28T08:03:26;5.38;;;4.43;;
36923;SDS011;22841;50.252;18.688;2023-07-28T08:05:53;4.95;;;4.07;;
36923;SDS011;22841;50.252;18.688;2023-07-28T08:08:19;5.75;;;4.95;;
36923;SDS011;22841;50.252;18.688;2023-07-28T08:10:46;4.97;;;3.63;;
36923;SDS011;22841;50.252;18.688;2023-07-28T08:13:12;6.35;;;4.25;;
36923;SDS011;22841;50.252;18.688;2023-07-28T08:15:39;5.93;;;4.38;;
36923;SDS011;22841;50.252;18.688;2023-07-28T08:18:05;8.13;;;4.65;;
36923;SDS011;22841;50.252;18.688;2023-07-28T08:20:31;6.68;;;4.60;;
36923;SDS011;22841;50.252;18.688;2023-07-28T08:22:58;8.05;;;4.18;;
36923;SDS011;22841;50.252;18.688;2023-07-28T08:25:24;4.78;;;4.00;;
36923;SDS011;22841;50.252;18.688;2023-07-28T08:27:50;8.95;;;4.60;;
36923;SDS011;22841;50.252;18.688;2023-07-28T08:30:16;8.77;;;4.43;;
36923;SDS011;22841;50.252;18.688;2023-07-28T08:32:42;6.03;;;4.55;;
36923;SDS011;22841;50.252;18.688;2023-07-28T08:35:09;6.47;;;4.28;;
36923;SDS011;22841;50.252;18.688;2023-07-28T08:37:35;5.70;;;4.70;;
36923;SDS011;22841;50.252;18.688;2023-07-28T08:40:02;4.57;;;4.10;;
36923;SDS011;22841;50.252;18.688;2023-07-28T08:42:30;5.60;;;4.13;;
36923;SDS011;22841;50.252;18.688;2023-07-28T08:45:01;6.63;;;4.40;;
36923;SDS011;22841;50.252;18.688;2023-07-28T08:47:30;4.72;;;4.22;;
36923;SDS011;22841;50.252;18.688;2023-07-28T08:49:57;5.22;;;4.00;;
36923;SDS011;22841;50.252;18.688;2023-07-28T08:52:48;6.50;;;4.30;;
36923;SDS011;22841;50.252;18.688;2023-07-28T08:55:16;6.35;;;4.30;;
36923;SDS011;22841;50.252;18.688;2023-07-28T08:57:42;5.25;;;4.20;;
36923;SDS011;22841;50.252;18.688;2023-07-28T09:00:09;9.65;;;4.88;;
36923;SDS011;22841;50.252;18.688;2023-07-28T09:02:38;7.75;;;4.45;;
36923;SDS011;22841;50.252;18.688;2023-07-28T09:05:05;6.38;;;4.47;;
36923;SDS011;22841;50.252;18.688;2023-07-28T09:07:35;4.78;;;3.92;;
36923;SDS011;22841;50.252;18.688;2023-07-28T09:10:02;7.10;;;4.13;;
36923;SDS011;22841;50.252;18.688;2023-07-28T09:12:32;5.35;;;3.95;;
36923;SDS011;22841;50.252;18.688;2023-07-28T09:14:58;7.60;;;4.13;;
36923;SDS011;22841;50.252;18.688;2023-07-28T09:17:25;8.93;;;4.43;;
36923;SDS011;22841;50.252;18.688;2023-07-28T09:19:55;5.40;;;4.40;;
36923;SDS011;22841;50.252;18.688;2023-07-28T09:22:22;4.78;;;3.65;;
36923;SDS011;22841;50.252;18.688;2023-07-28T09:24:49;10.05;;;4.05;;
36923;SDS011;22841;50.252;18.688;2023-07-28T09:27:34;3.70;;;3.38;;
36923;SDS011;22841;50.252;18.688;2023-07-28T09:30:01;6.28;;;3.80;;
36923;SDS011;22841;50.252;18.688;2023-07-28T09:32:28;4.82;;;3.95;;
36923;SDS011;22841;50.252;18.688;2023-07-28T09:35:09;9.80;;;4.40;;
36923;SDS011;22841;50.252;18.688;2023-07-28T09:37:37;5.55;;;4.00;;
36923;SDS011;22841;50.252;18.688;2023-07-28T09:40:10;6.90;;;4.65;;
36923;SDS011;22841;50.252;18.688;2023-07-28T09:42:41;6.97;;;4.43;;
36923;SDS011;22841;50.252;18.688;2023-07-28T09:45:09;4.25;;;3.83;;
36923;SDS011;22841;50.252;18.688;2023-07-28T09:47:35;8.75;;;4.10;;
36923;SDS011;22841;50.252;18.688;2023-07-28T09:50:04;4.88;;;3.70;;
36923;SDS011;22841;50.252;18.688;2023-07-28T09:58:51;7.10;;;3.85;;
36923;SDS011;22841;50.252;18.688;2023-07-28T10:01:18;5.20;;;3.90;;
36923;SDS011;22841;50.252;18.688;2023-07-28T10:03:47;4.43;;;3.63;;
36923;SDS011;22841;50.252;18.688;2023-07-28T10:06:14;4.95;;;3.75;;
36923;SDS011;22841;50.252;18.688;2023-07-28T10:08:42;9.05;;;3.95;;
36923;SDS011;22841;50.252;18.688;2023-07-28T10:11:09;6.28;;;3.90;;
36923;SDS011;22841;50.252;18.688;2023-07-28T10:13:41;5.25;;;4.15;;
36923;SDS011;22841;50.252;18.688;2023-07-28T10:16:08;5.40;;;3.95;;
36923;SDS011;22841;50.252;18.688;2023-07-28T10:18:35;4.88;;;3.60;;
36923;SDS011;22841;50.252;18.688;2023-07-28T10:21:06;4.20;;;3.58;;
36923;SDS011;22841;50.252;18.688;2023-07-28T10:23:38;5.82;;;3.97;;
36923;SDS011;22841;50.252;18.688;2023-07-28T10:26:05;5.15;;;3.83;;
36923;SDS011;22841;50.252;18.688;2023-07-28T10:31:06;5.30;;;4.43;;
36923;SDS011;22841;50.252;18.688;2023-07-28T10:33:37;6.95;;;3.47;;
36923;SDS011;22841;50.252;18.688;2023-07-28T10:36:12;4.95;;;3.38;;
36923;SDS011;22841;50.252;18.688;2023-07-28T10:38:39;5.47;;;3.60;;
36923;SDS011;22841;50.252;18.688;2023-07-28T10:41:07;4.75;;;3.50;;
36923;SDS011;22841;50.252;18.688;2023-07-28T10:43:34;4.30;;;3.47;;
36923;SDS011;22841;50.252;18.688;2023-07-28T10:46:01;7.75;;;3.30;;
36923;SDS011;22841;50.252;18.688;2023-07-28T10:48:27;4.43;;;3.22;;
36923;SDS011;22841;50.252;18.688;2023-07-28T10:50:53;4.22;;;3.22;;
36923;SDS011;22841;50.252;18.688;2023-07-28T10:53:19;3.10;;;2.80;;
36923;SDS011;22841;50.252;18.688;2023-07-28T10:56:10;3.28;;;2.70;;
36923;SDS011;22841;50.252;18.688;2023-07-28T10:58:37;5.43;;;2.80;;
36923;SDS011;22841;50.252;18.688;2023-07-28T11:01:03;4.82;;;2.85;;
36923;SDS011;22841;50.252;18.688;2023-07-28T11:03:29;4.80;;;2.95;;
36923;SDS011;22841;50.252;18.688;2023-07-28T11:05:56;2.63;;;2.40;;
36923;SDS011;22841;50.252;18.688;2023-07-28T11:08:22;3.10;;;2.47;;
36923;SDS011;22841;50.252;18.688;2023-07-28T11:10:49;3.67;;;2.47;;
36923;SDS011;22841;50.252;18.688;2023-07-28T11:13:15;3.17;;;2.72;;
36923;SDS011;22841;50.252;18.688;2023-07-28T11:15:42;10.35;;;2.63;;
36923;SDS011;22841;50.252;18.688;2023-07-28T11:18:08;4.20;;;2.90;;
36923;SDS011;22841;50.252;18.688;2023-07-28T11:20:35;3.72;;;2.80;;
36923;SDS011;22841;50.252;18.688;2023-07-28T11:23:02;3.20;;;2.22;;
36923;SDS011;22841;50.252;18.688;2023-07-28T11:25:29;3.78;;;2.63;;
36923;SDS011;22841;50.252;18.688;2023-07-28T11:27:57;4.40;;;2.20;;
36923;SDS011;22841;50.252;18.688;2023-07-28T11:30:26;3.70;;;2.10;;
36923;SDS011;22841;50.252;18.688;2023-07-28T11:32:53;2.63;;;1.92;;
36923;SDS011;22841;50.252;18.688;2023-07-28T11:35:20;2.13;;;1.85;;
36923;SDS011;22841;50.252;18.688;2023-07-28T11:37:48;2.28;;;1.70;;
36923;SDS011;22841;50.252;18.688;2023-07-28T11:40:17;1.67;;;1.58;;
36923;SDS011;22841;50.252;18.688;2023-07-28T11:42:45;2.75;;;1.65;;
36923;SDS011;22841;50.252;18.688;2023-07-28T11:45:14;6.30;;;1.88;;
36923;SDS011;22841;50.252;18.688;2023-07-28T11:48:03;3.22;;;1.40;;
36923;SDS011;22841;50.252;18.688;2023-07-28T11:50:35;3.08;;;1.80;;
36923;SDS011;22841;50.252;18.688;2023-07-28T11:53:05;1.88;;;1.77;;
36923;SDS011;22841;50.252;18.688;2023-07-28T11:55:36;4.50;;;1.70;;
36923;SDS011;22841;50.252;18.688;2023-07-28T12:05:26;1.25;;;1.17;;
36923;SDS011;22841;50.252;18.688;2023-07-28T12:07:54;4.65;;;1.67;;
36923;SDS011;22841;50.252;18.688;2023-07-28T12:10:20;1.50;;;1.30;;
36923;SDS011;22841;50.252;18.688;2023-07-28T12:12:46;2.35;;;1.27;;
36923;SDS011;22841;50.252;18.688;2023-07-28T12:15:20;1.20;;;1.10;;
36923;SDS011;22841;50.252;18.688;2023-07-28T12:24:25;2.25;;;1.48;;
36923;SDS011;22841;50.252;18.688;2023-07-28T12:26:51;1.23;;;1.10;;
36923;SDS011;22841;50.252;18.688;2023-07-28T12:29:20;3.95;;;1.50;;
36923;SDS011;22841;50.252;18.688;2023-07-28T12:31:46;1.45;;;1.35;;
36923;SDS011;22841;50.252;18.688;2023-07-28T12:34:12;4.70;;;1.40;;
36923;SDS011;22841;50.252;18.688;2023-07-28T12:36:38;4.35;;;1.25;;
36923;SDS011;22841;50.252;18.688;2023-07-28T12:39:05;6.40;;;1.40;;
36923;SDS011;22841;50.252;18.688;2023-07-28T12:41:31;1.42;;;1.33;;
36923;SDS011;22841;50.252;18.688;2023-07-28T12:43:57;1.73;;;1.50;;
36923;SDS011;22841;50.252;18.688;2023-07-28T12:46:23;1.17;;;1.10;;
36923;SDS011;22841;50.252;18.688;2023-07-28T12:48:49;1.80;;;1.52;;
36923;SDS011;22841;50.252;18.688;2023-07-28T12:51:16;1.35;;;1.25;;
36923;SDS011;22841;50.252;18.688;2023-07-28T12:53:42;3.83;;;1.60;;
36923;SDS011;22841;50.252;18.688;2023-07-28T12:56:08;1.85;;;1.20;;
36923;SDS011;22841;50.252;18.688;2023-07-28T12:58:34;2.90;;;1.33;;
36923;SDS011;22841;50.252;18.688;2023-07-28T13:01:00;2.08;;;1.60;;
36923;SDS011;22841;50.252;18.688;2023-07-28T13:03:28;2.35;;;1.42;;
36923;SDS011;22841;50.252;18.688;2023-07-28T13:05:55;2.90;;;1.30;;
36923;SDS011;22841;50.252;18.688;2023-07-28T13:08:21;1.60;;;1.20;;
36923;SDS011;22841;50.252;18.688;2023-07-28T13:10:47;3.03;;;1.73;;
36923;SDS011;22841;50.252;18.688;2023-07-28T13:13:13;5.10;;;1.60;;
36923;SDS011;22841;50.252;18.688;2023-07-28T13:15:39;1.60;;;1.10;;
36923;SDS011;22841;50.252;18.688;2023-07-28T13:18:05;1.20;;;1.10;;
36923;SDS011;22841;50.252;18.688;2023-07-28T13:20:31;4.03;;;1.00;;
36923;SDS011;22841;50.252;18.688;2023-07-28T13:22:57;1.55;;;1.10;;
36923;SDS011;22841;50.252;18.688;2023-07-28T13:25:24;2.38;;;1.02;;
36923;SDS011;22841;50.252;18.688;2023-07-28T13:27:50;3.33;;;1.25;;
36923;SDS011;22841;50.252;18.688;2023-07-28T13:30:16;1.27;;;1.17;;
36923;SDS011;22841;50.252;18.688;2023-07-28T13:32:42;2.20;;;1.65;;
36923;SDS011;22841;50.252;18.688;2023-07-28T13:35:08;1.40;;;1.20;;
36923;SDS011;22841;50.252;18.688;2023-07-28T13:37:34;1.52;;;1.33;;
36923;SDS011;22841;50.252;18.688;2023-07-28T13:40:00;4.00;;;1.40;;
36923;SDS011;22841;50.252;18.688;2023-07-28T13:42:26;1.98;;;1.63;;
36923;SDS011;22841;50.252;18.688;2023-07-28T13:44:52;4.97;;;1.30;;
36923;SDS011;22841;50.252;18.688;2023-07-28T13:47:19;8.75;;;1.60;;
36923;SDS011;22841;50.252;18.688;2023-07-28T13:49:45;1.35;;;1.25;;
36923;SDS011;22841;50.252;18.688;2023-07-28T13:52:11;3.40;;;1.40;;
36923;SDS011;22841;50.252;18.688;2023-07-28T13:54:37;1.77;;;1.42;;
36923;SDS011;22841;50.252;18.688;2023-07-28T13:57:03;2.00;;;1.40;;
36923;SDS011;22841;50.252;18.688;2023-07-28T13:59:29;1.50;;;1.40;;
36923;SDS011;22841;50.252;18.688;2023-07-28T14:01:56;1.35;;;1.20;;
36923;SDS011;22841;50.252;18.688;2023-07-28T14:04:23;1.67;;;1.35;;
36923;SDS011;22841;50.252;18.688;2023-07-28T14:06:49;3.42;;;1.70;;
36923;SDS011;22841;50.252;18.688;2023-07-28T14:09:16;3.03;;;1.65;;
36923;SDS011;22841;50.252;18.688;2023-07-28T14:11:42;4.00;;;1.65;;
36923;SDS011;22841;50.252;18.688;2023-07-28T14:14:08;4.72;;;1.50;;
36923;SDS011;22841;50.252;18.688;2023-07-28T14:16:34;1.60;;;1.50;;
36923;SDS011;22841;50.252;18.688;2023-07-28T14:19:00;2.42;;;1.70;;
36923;SDS011;22841;50.252;18.688;2023-07-28T14:21:27;2.40;;;1.60;;
36923;SDS011;22841;50.252;18.688;2023-07-28T14:23:53;3.13;;;1.90;;
36923;SDS011;22841;50.252;18.688;2023-07-28T14:26:19;2.13;;;1.90;;
36923;SDS011;22841;50.252;18.688;2023-07-28T14:28:45;2.05;;;1.85;;
36923;SDS011;22841;50.252;18.688;2023-07-28T14:31:11;7.03;;;1.50;;
36923;SDS011;22841;50.252;18.688;2023-07-28T14:33:37;3.40;;;1.60;;
36923;SDS011;22841;50.252;18.688;2023-07-28T14:36:03;11.30;;;2.17;;
36923;SDS011;22841;50.252;18.688;2023-07-28T14:38:29;3.17;;;1.80;;
36923;SDS011;22841;50.252;18.688;2023-07-28T14:40:56;2.75;;;1.80;;
36923;SDS011;22841;50.252;18.688;2023-07-28T14:43:22;3.33;;;2.03;;
36923;SDS011;22841;50.252;18.688;2023-07-28T14:45:50;3.38;;;1.50;;
36923;SDS011;22841;50.252;18.688;2023-07-28T14:48:17;4.40;;;1.52;;
36923;SDS011;22841;50.252;18.688;2023-07-28T14:51:08;1.83;;;1.25;;
36923;SDS011;22841;50.252;18.688;2023-07-28T14:53:59;1.73;;;1.42;;
36923;SDS011;22841;50.252;18.688;2023-07-28T14:56:50;4.60;;;1.70;;
36923;SDS011;22841;50.252;18.688;2023-07-28T14:59:41;1.88;;;1.30;;
36923;SDS011;22841;50.252;18.688;2023-07-28T15:02:33;15.23;;;1.90;;
36923;SDS011;22841;50.252;18.688;2023-07-28T15:05:24;2.72;;;1.40;;
36923;SDS011;22841;50.252;18.688;2023-07-28T15:11:11;4.38;;;1.35;;
36923;SDS011;22841;50.252;18.688;2023-07-28T15:13:37;1.70;;;1.30;;
36923;SDS011;22841;50.252;18.688;2023-07-28T15:16:03;5.45;;;1.73;;
36923;SDS011;22841;50.252;18.688;2023-07-28T15:18:30;4.00;;;1.42;;
36923;SDS011;22841;50.252;18.688;2023-07-28T15:20:57;3.00;;;1.80;;
36923;SDS011;22841;50.252;18.688;2023-07-28T15:23:25;6.15;;;1.38;;
36923;SDS011;22841;50.252;18.688;2023-07-28T15:25:52;3.33;;;1.20;;
36923;SDS011;22841;50.252;18.688;2023-07-28T15:28:22;3.50;;;2.33;;
36923;SDS011;22841;50.252;18.688;2023-07-28T15:30:49;4.25;;;1.70;;
36923;SDS011;22841;50.252;18.688;2023-07-28T15:33:17;6.88;;;1.88;;
36923;SDS011;22841;50.252;18.688;2023-07-28T15:35:44;2.88;;;1.80;;
36923;SDS011;22841;50.252;18.688;2023-07-28T15:38:11;1.60;;;1.40;;
36923;SDS011;22841;50.252;18.688;2023-07-28T15:40:37;1.70;;;1.60;;